createdAt,value
2022-11-09T00:01:04.842Z,95659.22
2022-11-09T00:03:32.027Z,95658.25
2022-11-09T00:06:00.207Z,95650.66
2022-11-09T00:08:27.722Z,95660.84
2022-11-09T00:10:54.567Z,95663.28
2022-11-09T00:13:22.087Z,95663.03
2022-11-09T00:15:49.355Z,95662.78
2022-11-09T00:18:16.248Z,95663.84
2022-11-09T00:20:47.571Z,95663.44
2022-11-09T00:23:16.313Z,95663.31
2022-11-09T00:25:43.528Z,95666.56
2022-11-09T00:28:10.347Z,95664.25
2022-11-09T00:30:37.285Z,95660.72
2022-11-09T00:33:04.147Z,95670.66
2022-11-09T00:35:31.077Z,95661.41
2022-11-09T00:37:57.979Z,95662.22
2022-11-09T00:40:24.898Z,95658.69
2022-11-09T00:42:51.961Z,95657.88
2022-11-09T00:45:18.871Z,95655.16
2022-11-09T00:47:45.689Z,95649.44
2022-11-09T00:50:12.477Z,95654.34
2022-11-09T00:52:39.346Z,95651.09
2022-11-09T00:55:06.902Z,95653.78
2022-11-09T00:57:33.690Z,95651.63
2022-11-09T01:00:00.522Z,95653.91
2022-11-09T01:02:27.389Z,95652.44
2022-11-09T01:04:56.866Z,95659.09
2022-11-09T01:07:25.955Z,95658.44
2022-11-09T01:09:52.837Z,95663.84
2022-11-09T01:12:19.722Z,95656.78
2022-11-09T01:14:46.553Z,95661.41
2022-11-09T01:17:13.365Z,95655.16
2022-11-09T01:19:40.205Z,95650.81
2022-11-09T01:22:07.047Z,95654.88
2022-11-09T01:24:33.938Z,95652.97
2022-11-09T01:27:00.744Z,95654.59
2022-11-09T01:29:27.696Z,95653.53
2022-11-09T01:31:56.315Z,95652.72
2022-11-09T01:34:23.271Z,95644.84
2022-11-09T01:36:52.030Z,95645.09
2022-11-09T01:39:19.587Z,95651.50
2022-11-09T01:41:47.965Z,95641.88
2022-11-09T01:44:20.004Z,95640.22
2022-11-09T01:46:46.827Z,95639.97
2022-11-09T01:49:29.773Z,95640.22
2022-11-09T01:52:02.909Z,95638.59
2022-11-09T01:54:35.251Z,95634.78
2022-11-09T01:57:10.563Z,95643.72
2022-11-09T01:59:43.154Z,95640.22
2022-11-09T02:02:11.266Z,95641.97
2022-11-09T02:04:46.263Z,95647.78
2022-11-09T02:07:13.653Z,95639.72
2022-11-09T02:09:54.169Z,95652.13
2022-11-09T02:12:22.990Z,95645.31
2022-11-09T02:14:52.785Z,95643.13
2022-11-09T02:17:21.216Z,95641.38
2022-11-09T02:19:49.917Z,95639.88
2022-11-09T02:22:16.957Z,95651.69
2022-11-09T02:24:43.842Z,95648.28
2022-11-09T02:27:11.125Z,95646.41
2022-11-09T02:29:44.235Z,95649.91
2022-11-09T02:32:21.499Z,95643.69
2022-11-09T02:34:48.488Z,95646.66
2022-11-09T02:37:39.699Z,95652.19
2022-11-09T02:40:14.882Z,95649.31
2022-11-09T02:42:41.744Z,95642.63
2022-11-09T02:45:09.338Z,95646.81
2022-11-09T02:47:37.381Z,95639.59
2022-11-09T02:50:06.093Z,95651.66
2022-11-09T02:52:32.910Z,95654.47
2022-11-09T02:54:59.740Z,95651.34
2022-11-09T02:57:26.660Z,95656.38
2022-11-09T02:59:53.922Z,95649.81
2022-11-09T03:02:20.991Z,95652.69
2022-11-09T03:04:47.848Z,95641.25
2022-11-09T03:07:14.676Z,95645.00
2022-11-09T03:09:42.081Z,95656.94
2022-11-09T03:12:27.708Z,95658.41
2022-11-09T03:14:57.240Z,95660.09
2022-11-09T03:17:24.707Z,95650.31
2022-11-09T03:19:51.933Z,95662.00
2022-11-09T03:22:19.494Z,95654.50
2022-11-09T03:24:47.076Z,95649.88
2022-11-09T03:27:15.074Z,95667.38
2022-11-09T03:29:42.075Z,95650.06
2022-11-09T03:32:09.187Z,95656.84
2022-11-09T03:34:36.480Z,95654.50
2022-11-09T03:37:04.071Z,95657.84
2022-11-09T03:39:31.607Z,95667.69
2022-11-09T03:41:58.418Z,95671.03
2022-11-09T03:44:26.063Z,95670.88
2022-11-09T03:46:52.925Z,95660.88
2022-11-09T03:49:19.789Z,95671.03
2022-11-09T03:51:46.603Z,95663.69
2022-11-09T03:54:13.368Z,95663.81
2022-11-09T03:56:40.214Z,95672.53
2022-11-09T03:59:07.004Z,95665.22
2022-11-09T04:01:33.804Z,95665.47
2022-11-09T04:04:00.647Z,95671.31
2022-11-09T04:06:27.615Z,95670.88
2022-11-09T04:08:54.423Z,95659.44
2022-11-09T04:11:21.170Z,95665.84
2022-11-09T04:13:48.007Z,95658.38
2022-11-09T04:16:14.924Z,95674.28
2022-11-09T04:18:41.809Z,95661.91
2022-11-09T04:21:09.011Z,95674.63
2022-11-09T04:23:35.866Z,95670.66
2022-11-09T04:26:02.635Z,95663.31
2022-11-09T04:28:29.569Z,95666.94
2022-11-09T04:31:00.369Z,95658.66
2022-11-09T04:33:27.211Z,95668.16
2022-11-09T04:35:54.035Z,95664.19
2022-11-09T04:38:20.783Z,95667.69
2022-11-09T04:40:47.728Z,95665.13
2022-11-09T04:43:16.177Z,95670.13
2022-11-09T04:45:43.303Z,95671.19
2022-11-09T04:48:10.938Z,95667.47
2022-11-09T04:50:37.804Z,95669.22
2022-11-09T04:53:13.251Z,95671.66
2022-11-09T04:55:41.039Z,95675.88
2022-11-09T04:58:08.817Z,95683.41
2022-11-09T05:00:36.081Z,95668.91
2022-11-09T05:03:04.943Z,95683.00
2022-11-09T05:05:33.772Z,95678.69
2022-11-09T05:08:00.921Z,95683.81
2022-11-09T05:10:27.930Z,95680.31
2022-11-09T05:13:05.699Z,95683.81
2022-11-09T05:15:33.690Z,95687.81
2022-11-09T05:18:01.785Z,95687.56
2022-11-09T05:20:29.705Z,95682.13
2022-11-09T05:23:17.108Z,95687.69
2022-11-09T05:25:44.649Z,95694.00
2022-11-09T05:28:11.998Z,95692.81
2022-11-09T05:30:39.029Z,95698.16
2022-11-09T05:33:06.088Z,95693.00
2022-11-09T05:35:33.874Z,95707.25
2022-11-09T05:38:00.699Z,95705.50
2022-11-09T05:40:27.846Z,95705.75
2022-11-09T05:42:56.197Z,95700.94
2022-11-09T05:45:41.879Z,95705.84
2022-11-09T05:48:10.656Z,95706.13
2022-11-09T05:50:38.231Z,95704.38
2022-11-09T05:53:34.681Z,95713.25
2022-11-09T05:56:06.616Z,95714.06
2022-11-09T05:58:36.442Z,95713.75
2022-11-09T06:01:07.981Z,95722.16
2022-11-09T06:03:34.818Z,95718.91
2022-11-09T06:06:08.960Z,95729.66
2022-11-09T06:08:36.326Z,95709.94
2022-11-09T06:11:08.835Z,95728.00
2022-11-09T06:13:36.908Z,95734.56
2022-11-09T06:16:05.546Z,95739.88
2022-11-09T06:18:35.801Z,95741.28
2022-11-09T06:21:04.493Z,95741.97
2022-11-09T06:23:31.743Z,95729.84
2022-11-09T06:26:00.993Z,95734.31
2022-11-09T06:28:28.304Z,95737.88
2022-11-09T06:31:02.041Z,95740.66
2022-11-09T06:33:31.284Z,95738.94
2022-11-09T06:35:58.886Z,95743.47
2022-11-09T06:38:28.836Z,95740.00
2022-11-09T06:40:59.580Z,95747.38
2022-11-09T06:43:27.654Z,95737.13
2022-11-09T06:45:54.935Z,95745.06
2022-11-09T06:48:22.460Z,95736.94
2022-11-09T06:50:49.541Z,95738.06
2022-11-09T06:53:18.401Z,95735.91
2022-11-09T06:55:50.132Z,95731.56
2022-11-09T06:58:19.822Z,95742.72
2022-11-09T07:00:47.093Z,95743.69
2022-11-09T07:03:15.581Z,95743.28
2022-11-09T07:05:42.928Z,95742.06
2022-11-09T07:08:09.918Z,95742.22
2022-11-09T07:10:37.339Z,95738.94
2022-11-09T07:13:04.986Z,95733.25
2022-11-09T07:15:32.799Z,95735.28
2022-11-09T07:18:01.373Z,95731.34
2022-11-09T07:20:29.129Z,95728.56
2022-11-09T07:22:56.298Z,95733.72
2022-11-09T07:25:23.439Z,95722.75
2022-11-09T07:27:50.330Z,95735.63
2022-11-09T07:30:17.485Z,95722.66
2022-11-09T07:33:08.149Z,95731.59
2022-11-09T07:35:31.280Z,95725.75
2022-11-09T07:38:01.958Z,95726.88
2022-11-09T07:40:29.784Z,95725.09
2022-11-09T07:43:03.972Z,95723.16
2022-11-09T07:45:32.642Z,95724.94
2022-11-09T07:48:01.790Z,95722.97
2022-11-09T07:50:29.965Z,95721.09
2022-11-09T07:52:58.011Z,95721.47
2022-11-09T07:55:26.088Z,95720.53
2022-11-09T07:58:00.599Z,95721.66
2022-11-09T08:00:29.429Z,95728.00
2022-11-09T08:02:56.414Z,95723.69
2022-11-09T08:05:23.418Z,95721.13
2022-11-09T08:07:56.249Z,95724.66
2022-11-09T08:10:23.616Z,95721.56
2022-11-09T08:12:58.170Z,95726.28
2022-11-09T08:15:25.662Z,95725.44
2022-11-09T08:17:52.740Z,95727.91
2022-11-09T08:20:20.614Z,95724.66
2022-11-09T08:22:47.930Z,95720.13
2022-11-09T08:25:15.640Z,95721.63
2022-11-09T08:27:42.792Z,95718.84
2022-11-09T08:30:16.027Z,95719.44
2022-11-09T08:32:43.864Z,95719.28
2022-11-09T08:35:12.682Z,95723.19
2022-11-09T08:37:39.857Z,95713.06
2022-11-09T08:40:07.637Z,95716.78
2022-11-09T08:42:34.531Z,95712.66
2022-11-09T08:45:01.784Z,95720.03
2022-11-09T08:47:28.990Z,95714.16
2022-11-09T08:49:56.220Z,95722.09
2022-11-09T08:52:23.564Z,95717.53
2022-11-09T08:54:50.366Z,95719.28
2022-11-09T08:57:20.506Z,95719.50
2022-11-09T08:59:47.313Z,95715.91
2022-11-09T09:02:15.099Z,95713.72
2022-11-09T09:04:42.383Z,95716.91
2022-11-09T09:07:10.112Z,95720.22
2022-11-09T09:09:40.056Z,95718.41
2022-11-09T09:12:08.992Z,95712.81
2022-11-09T09:14:36.133Z,95720.09
2022-11-09T09:17:03.556Z,95713.69
2022-11-09T09:19:30.473Z,95710.81
2022-11-09T09:21:57.324Z,95706.47
2022-11-09T09:24:24.192Z,95710.81
2022-11-09T09:26:51.183Z,95699.81
2022-11-09T09:29:18.290Z,95701.03
2022-11-09T09:31:45.168Z,95705.72
2022-11-09T09:34:12.642Z,95702.06
2022-11-09T09:36:43.398Z,95698.09
2022-11-09T09:39:14.618Z,95693.13
2022-11-09T09:41:49.474Z,95698.56
2022-11-09T09:44:22.105Z,95694.75
2022-11-09T09:47:12.627Z,95691.38
2022-11-09T09:49:49.122Z,95684.50
2022-11-09T09:52:26.641Z,95685.06
2022-11-09T09:55:13.951Z,95682.03
2022-11-09T09:57:47.316Z,95673.13
2022-11-09T10:00:26.345Z,95673.00
2022-11-09T10:02:53.689Z,95672.50
2022-11-09T10:05:28.321Z,95668.34
2022-11-09T10:08:09.298Z,95656.72
2022-11-09T10:11:03.886Z,95666.66
2022-11-09T10:13:39.808Z,95658.16
2022-11-09T10:16:12.686Z,95656.50
2022-11-09T10:18:57.918Z,95667.75
2022-11-09T10:21:56.812Z,95660.91
2022-11-09T10:25:12.842Z,95656.13
2022-11-09T10:27:43.777Z,95655.09
2022-11-09T10:30:17.742Z,95656.22
2022-11-09T10:32:49.031Z,95645.84
2022-11-09T10:35:45.473Z,95644.28
2022-11-09T10:38:18.467Z,95641.88
2022-11-09T10:41:00.310Z,95641.53
2022-11-09T10:43:45.491Z,95634.91
2022-11-09T10:46:30.828Z,95613.16
2022-11-09T10:49:21.704Z,95622.88
2022-11-09T10:52:31.899Z,95627.69
2022-11-09T10:55:25.330Z,95619.03
2022-11-09T10:58:39.345Z,95616.28
2022-11-09T11:01:26.339Z,95612.13
2022-11-09T11:04:23.864Z,95612.81
2022-11-09T11:07:21.470Z,95604.13
2022-11-09T11:10:16.153Z,95608.69
2022-11-09T11:13:01.426Z,95607.31
2022-11-09T11:15:47.027Z,95602.56
2022-11-09T11:18:35.933Z,95601.06
2022-11-09T11:21:23.729Z,95597.25
2022-11-09T11:24:14.084Z,95594.25
2022-11-09T11:27:10.212Z,95588.38
2022-11-09T11:30:17.497Z,95596.91
2022-11-09T11:33:12.868Z,95584.75
2022-11-09T11:36:16.812Z,95586.16
2022-11-09T11:39:22.863Z,95580.31
2022-11-09T11:42:26.475Z,95581.47
2022-11-09T11:45:41.802Z,95571.34
2022-11-09T11:48:52.223Z,95578.44
2022-11-09T11:52:02.632Z,95576.03
2022-11-09T11:55:00.241Z,95571.00
2022-11-09T11:58:08.425Z,95567.75
2022-11-09T12:01:18.370Z,95565.69
2022-11-09T12:04:32.437Z,95573.59
2022-11-09T12:07:39.329Z,95567.78
2022-11-09T12:10:32.050Z,95572.81
2022-11-09T12:13:40.092Z,95561.03
2022-11-09T12:16:35.542Z,95559.66
2022-11-09T12:19:48.635Z,95563.53
2022-11-09T12:23:18.941Z,95558.88
2022-11-09T12:26:23.748Z,95555.41
2022-11-09T12:29:15.641Z,95552.44
2022-11-09T12:32:07.120Z,95546.59
2022-11-09T12:35:00.168Z,95540.91
2022-11-09T12:37:55.717Z,95539.91
2022-11-09T12:40:54.547Z,95543.56
2022-11-09T12:43:53.834Z,95535.50
2022-11-09T12:46:45.240Z,95541.31
2022-11-09T12:49:39.589Z,95538.50
2022-11-09T12:52:29.070Z,95538.28
2022-11-09T12:55:34.383Z,95533.84
2022-11-09T12:58:29.678Z,95534.25
2022-11-09T13:01:35.297Z,95535.09
2022-11-09T13:04:23.370Z,95536.28
2022-11-09T13:07:14.858Z,95541.00
2022-11-09T13:10:02.463Z,95530.88
2022-11-09T13:12:48.268Z,95537.13
2022-11-09T13:15:35.269Z,95534.16
2022-11-09T13:18:26.119Z,95533.31
2022-11-09T13:21:23.819Z,95534.41
2022-11-09T13:24:30.871Z,95532.38
2022-11-09T13:27:37.752Z,95531.41
2022-11-09T13:30:23.355Z,95528.88
2022-11-09T13:33:09.767Z,95530.03
2022-11-09T13:35:55.768Z,95530.28
2022-11-09T13:38:41.697Z,95518.59
2022-11-09T13:41:47.944Z,95529.81
2022-11-09T13:44:37.557Z,95527.34
2022-11-09T13:47:30.710Z,95527.41
2022-11-09T13:50:22.881Z,95524.56
2022-11-09T13:53:36.327Z,95531.91
2022-11-09T13:56:32.373Z,95528.88
2022-11-09T13:59:23.965Z,95531.69
2022-11-09T14:02:22.067Z,95524.50
2022-11-09T14:05:24.069Z,95527.69
2022-11-09T14:08:23.404Z,95513.75
2022-11-09T14:11:28.094Z,95521.84
2022-11-09T14:14:19.265Z,95527.56
2022-11-09T14:17:26.609Z,95521.97
2022-11-09T14:20:40.759Z,95521.75
2022-11-09T14:23:31.347Z,95518.47
2022-11-09T14:26:19.742Z,95525.00
2022-11-09T14:29:22.128Z,95523.28
2022-11-09T14:32:25.587Z,95534.84
2022-11-09T14:35:21.213Z,95524.09
2022-11-09T14:38:19.635Z,95532.28
2022-11-09T14:41:05.809Z,95527.63
2022-11-09T14:43:53.437Z,95535.28
2022-11-09T14:46:39.059Z,95532.88
2022-11-09T14:49:27.147Z,95543.63
2022-11-09T14:52:17.391Z,95537.47
2022-11-09T14:55:03.737Z,95540.72
2022-11-09T14:57:51.533Z,95546.28
2022-11-09T15:00:36.814Z,95549.09
2022-11-09T15:03:30.604Z,95554.75
2022-11-09T15:06:17.902Z,95551.81
2022-11-09T15:09:09.278Z,95547.47
2022-11-09T15:11:55.246Z,95558.59
2022-11-09T15:14:40.378Z,95549.38
2022-11-09T15:17:32.142Z,95554.34
2022-11-09T15:20:17.486Z,95557.97
2022-11-09T15:23:21.244Z,95540.63
2022-11-09T15:26:28.927Z,95551.63
2022-11-09T15:29:34.631Z,95561.47
2022-11-09T15:32:20.234Z,95557.88
2022-11-09T15:35:16.182Z,95553.88
2022-11-09T15:38:01.715Z,95552.13
2022-11-09T15:40:47.317Z,95556.41
2022-11-09T15:43:32.783Z,95553.69
2022-11-09T15:46:22.096Z,95549.84
2022-11-09T15:49:18.363Z,95559.59
2022-11-09T15:52:04.482Z,95561.91
2022-11-09T15:54:49.955Z,95564.84
2022-11-09T15:57:35.260Z,95567.34
2022-11-09T16:00:22.323Z,95563.63
2022-11-09T16:03:07.983Z,95573.91
2022-11-09T16:05:53.784Z,95573.25
2022-11-09T16:08:38.984Z,95577.09
2022-11-09T16:11:24.405Z,95573.69
2022-11-09T16:14:09.712Z,95568.94
2022-11-09T16:16:55.162Z,95578.38
2022-11-09T16:19:42.683Z,95586.91
2022-11-09T16:22:33.148Z,95580.03
2022-11-09T16:25:19.322Z,95583.41
2022-11-09T16:28:04.852Z,95589.91
2022-11-09T16:30:50.265Z,95591.19
2022-11-09T16:33:36.755Z,95592.63
2022-11-09T16:36:24.369Z,95587.44
2022-11-09T16:39:17.239Z,95588.06
2022-11-09T16:42:07.091Z,95595.66
2022-11-09T16:44:53.208Z,95591.78
2022-11-09T16:47:44.218Z,95597.94
2022-11-09T16:50:29.524Z,95604.41
2022-11-09T16:53:14.950Z,95595.59
2022-11-09T16:56:00.577Z,95599.13
2022-11-09T16:58:45.804Z,95602.22
2022-11-09T17:01:31.183Z,95595.72
2022-11-09T17:04:16.452Z,95605.28
2022-11-09T17:07:01.835Z,95598.75
2022-11-09T17:09:47.159Z,95611.03
2022-11-09T17:12:32.902Z,95613.94
2022-11-09T17:15:20.219Z,95615.84
2022-11-09T17:18:05.915Z,95613.84
2022-11-09T17:20:51.706Z,95609.69
2022-11-09T17:23:37.330Z,95610.88
2022-11-09T17:26:23.800Z,95620.28
2022-11-09T17:29:09.629Z,95613.28
2022-11-09T17:31:55.267Z,95616.56
2022-11-09T17:34:40.621Z,95627.25
2022-11-09T17:37:26.476Z,95626.59
2022-11-09T17:40:12.276Z,95636.00
2022-11-09T17:42:57.608Z,95634.00
2022-11-09T17:45:42.951Z,95642.75
2022-11-09T17:48:28.286Z,95642.38
2022-11-09T17:51:15.688Z,95647.84
2022-11-09T17:54:02.237Z,95650.28
2022-11-09T17:56:47.760Z,95640.69
2022-11-09T17:59:33.260Z,95642.25
2022-11-09T18:02:19.807Z,95646.09
2022-11-09T18:05:06.502Z,95651.91
2022-11-09T18:07:52.080Z,95643.16
2022-11-09T18:10:39.015Z,95645.38
2022-11-09T18:13:24.280Z,95650.03
2022-11-09T18:16:17.302Z,95643.38
2022-11-09T18:19:03.992Z,95645.63
2022-11-09T18:21:49.704Z,95646.50
2022-11-09T18:24:36.640Z,95651.28
2022-11-09T18:27:27.457Z,95654.09
2022-11-09T18:30:16.416Z,95656.81
2022-11-09T18:33:01.773Z,95664.06
2022-11-09T18:36:15.984Z,95664.81
2022-11-09T18:39:03.217Z,95668.38
2022-11-09T18:41:48.737Z,95663.31
2022-11-09T18:44:34.216Z,95677.50
2022-11-09T18:47:20.642Z,95665.84
2022-11-09T18:50:06.502Z,95671.31
2022-11-09T18:52:52.096Z,95681.94
2022-11-09T18:55:37.353Z,95678.31
2022-11-09T18:58:23.168Z,95672.19
2022-11-09T19:01:08.673Z,95674.25
2022-11-09T19:04:00.503Z,95674.16
2022-11-09T19:06:46.673Z,95672.25
2022-11-09T19:09:35.877Z,95674.84
2022-11-09T19:12:21.692Z,95679.63
2022-11-09T19:15:07.626Z,95675.97
2022-11-09T19:17:53.963Z,95675.19
2022-11-09T19:20:39.448Z,95673.13
2022-11-09T19:23:32.819Z,95684.28
2022-11-09T19:26:19.722Z,95678.16
2022-11-09T19:29:06.969Z,95667.41
2022-11-09T19:31:53.135Z,95681.16
2022-11-09T19:34:38.532Z,95667.72
2022-11-09T19:37:24.037Z,95673.44
2022-11-09T19:40:09.933Z,95673.16
2022-11-09T19:42:55.332Z,95679.69
2022-11-09T19:45:43.635Z,95682.13
2022-11-09T19:48:29.040Z,95689.06
2022-11-09T19:51:16.939Z,95687.00
2022-11-09T19:54:04.221Z,95685.13
2022-11-09T19:56:49.569Z,95688.91
2022-11-09T19:59:35.806Z,95690.13
2022-11-09T20:02:21.267Z,95693.28
2022-11-09T20:05:07.725Z,95689.94
2022-11-09T20:07:53.034Z,95702.72
2022-11-09T20:10:38.371Z,95711.41
2022-11-09T20:13:24.670Z,95704.88
2022-11-09T20:16:10.733Z,95703.53
2022-11-09T20:18:56.603Z,95705.44
2022-11-09T20:21:44.481Z,95702.44
2022-11-09T20:24:30.114Z,95710.03
2022-11-09T20:27:16.001Z,95704.88
2022-11-09T20:30:01.302Z,95711.75
2022-11-09T20:32:46.696Z,95715.69
2022-11-09T20:35:32.031Z,95711.31
2022-11-09T20:38:17.275Z,95713.59
2022-11-09T20:41:05.675Z,95725.38
2022-11-09T20:43:51.437Z,95710.56
2022-11-09T20:46:37.177Z,95717.47
2022-11-09T20:49:22.516Z,95715.84
2022-11-09T20:52:07.964Z,95707.66
2022-11-09T20:54:53.400Z,95709.28
2022-11-09T20:57:38.697Z,95706.31
2022-11-09T21:00:24.694Z,95712.41
2022-11-09T21:03:10.254Z,95711.84
2022-11-09T21:06:02.098Z,95708.81
2022-11-09T21:08:50.249Z,95702.28
2022-11-09T21:11:35.392Z,95715.06
2022-11-09T21:14:20.670Z,95708.25
2022-11-09T21:17:05.887Z,95713.81
2022-11-09T21:19:51.590Z,95698.03
2022-11-09T21:22:55.374Z,95709.97
2022-11-09T21:26:01.239Z,95717.28
2022-11-09T21:29:04.768Z,95711.13
2022-11-09T21:31:50.074Z,95714.06
2022-11-09T21:34:38.851Z,95712.69
2022-11-09T21:37:24.388Z,95716.22
2022-11-09T21:40:10.648Z,95723.94
2022-11-09T21:42:56.139Z,95716.69
2022-11-09T21:45:42.282Z,95719.28
2022-11-09T21:48:27.866Z,95722.78
2022-11-09T21:51:13.249Z,95718.72
2022-11-09T21:53:58.884Z,95719.78
2022-11-09T21:56:44.605Z,95706.25
2022-11-09T21:59:30.082Z,95728.94
2022-11-09T22:02:15.364Z,95725.09
2022-11-09T22:05:00.457Z,95724.97
2022-11-09T22:07:45.833Z,95725.09
2022-11-09T22:10:31.367Z,95732.16
2022-11-09T22:13:35.618Z,95732.28
2022-11-09T22:16:22.767Z,95731.84
2022-11-09T22:19:26.934Z,95733.72
2022-11-09T22:22:13.480Z,95733.84
2022-11-09T22:24:59.110Z,95726.09
2022-11-09T22:27:44.489Z,95734.66
2022-11-09T22:30:29.829Z,95728.50
2022-11-09T22:33:15.788Z,95728.50
2022-11-09T22:36:04.374Z,95733.88
2022-11-09T22:38:51.207Z,95731.53
2022-11-09T22:41:36.974Z,95727.56
2022-11-09T22:44:22.318Z,95720.72
2022-11-09T22:47:10.225Z,95737.53
2022-11-09T22:49:55.712Z,95735.34
2022-11-09T22:52:41.052Z,95732.31
2022-11-09T22:55:26.778Z,95737.47
2022-11-09T22:58:12.918Z,95735.47
2022-11-09T23:01:18.989Z,95737.69
2022-11-09T23:04:04.723Z,95741.09
2022-11-09T23:06:50.415Z,95740.16
2022-11-09T23:09:35.594Z,95728.69
2022-11-09T23:12:21.065Z,95730.91
2022-11-09T23:15:12.600Z,95731.16
2022-11-09T23:18:17.468Z,95728.03
2022-11-09T23:21:03.079Z,95736.22
2022-11-09T23:23:49.625Z,95734.00
2022-11-09T23:26:35.333Z,95735.84
2022-11-09T23:29:20.512Z,95735.50
2022-11-09T23:32:05.944Z,95733.88
2022-11-09T23:34:51.196Z,95741.59
2022-11-09T23:37:36.508Z,95729.66
2022-11-09T23:40:21.885Z,95736.56
2022-11-09T23:43:12.188Z,95731.75
2022-11-09T23:46:01.543Z,95741.50
2022-11-09T23:48:46.898Z,95737.41
2022-11-09T23:51:32.235Z,95739.28
2022-11-09T23:54:17.458Z,95732.69
2022-11-09T23:57:02.751Z,95732.94
2022-11-09T23:59:48.127Z,95733.97
